createdAt,value
2018-10-02T04:32:01.301Z,0.1
2018-10-02T04:34:01.118Z,0.2
2018-10-02T04:35:01.116Z,0.3
2018-10-02T04:37:06.255Z,0.4
2018-10-02T04:38:01.103Z,0.5
2018-10-02T04:40:02.197Z,0.6
2018-10-02T04:41:01.077Z,0.7
2018-10-02T04:43:01.250Z,0.8
2018-10-02T04:44:01.154Z,0.9
2018-10-02T04:45:01.106Z,1.0
2018-10-02T04:46:01.105Z,1.1
2018-10-02T04:48:01.296Z,1.3
2018-10-02T04:49:02.116Z,1.4
2018-10-02T04:50:01.087Z,1.6
2018-10-02T04:51:01.092Z,1.9
2018-10-02T04:52:01.091Z,2.2
2018-10-02T04:53:01.232Z,2.6
2018-10-02T04:54:01.089Z,3.1
2018-10-02T04:55:01.150Z,3.9
2018-10-02T04:56:01.351Z,5.1
2018-10-02T04:57:01.087Z,6.7
2018-10-02T04:58:01.233Z,8.7
2018-10-02T04:59:01.089Z,11.2
2018-10-02T05:00:01.095Z,14.1
2018-10-02T05:01:01.092Z,17.1
2018-10-02T05:02:01.097Z,20.6
2018-10-02T05:03:01.274Z,24.5
2018-10-02T05:04:01.099Z,29.3
2018-10-02T05:05:01.099Z,34.9
2018-10-02T05:06:01.094Z,41.6
2018-10-02T05:07:01.095Z,49.5
2018-10-02T05:08:01.295Z,58.8
2018-10-02T05:09:01.095Z,68.9
2018-10-02T05:10:01.432Z,79.2
2018-10-02T05:11:01.093Z,89.9
2018-10-02T05:12:01.107Z,101.5
2018-10-02T05:13:01.241Z,113.8
2018-10-02T05:14:06.141Z,126.6
2018-10-02T05:15:01.097Z,138.1
2018-10-02T05:16:01.094Z,149.2
2018-10-02T05:17:01.096Z,160.9
2018-10-02T05:18:01.239Z,176.3
2018-10-02T05:19:06.093Z,195.5
2018-10-02T05:20:01.093Z,217.5
2018-10-02T05:21:01.097Z,239.1
2018-10-02T05:22:01.105Z,270.2
2018-10-02T05:23:01.241Z,314.0
2018-10-02T05:24:06.092Z,371.9
2018-10-02T05:25:01.099Z,440.0
2018-10-02T05:26:01.095Z,509.5
2018-10-02T05:27:01.134Z,570.4
2018-10-02T05:28:01.243Z,628.0
2018-10-02T05:29:01.129Z,698.4
2018-10-02T05:30:01.095Z,778.7
2018-10-02T05:31:01.065Z,881.1
2018-10-02T05:32:01.152Z,989.7
2018-10-02T05:33:01.307Z,1092.3
2018-10-02T05:34:06.105Z,1200.2
2018-10-02T05:35:01.189Z,1318.2
2018-10-02T05:36:01.097Z,1453.3
2018-10-02T05:37:01.108Z,1594.9
2018-10-02T05:38:01.244Z,1731.8
2018-10-02T05:39:01.132Z,1852.3
2018-10-02T05:40:01.102Z,1960.8
2018-10-02T05:41:01.108Z,2080.9
2018-10-02T05:42:01.105Z,2220.9
2018-10-02T05:43:01.242Z,2373.7
2018-10-02T05:45:01.063Z,2532.9
2018-10-02T05:46:01.056Z,2691.4
2018-10-02T05:47:01.088Z,2837.1
2018-10-02T05:48:01.091Z,3023.3
2018-10-02T05:49:01.233Z,3248.4
2018-10-02T05:50:01.092Z,3469.7
2018-10-02T05:51:01.093Z,3658.3
2018-10-02T05:52:01.092Z,3820.9
2018-10-02T05:53:01.095Z,3970.7
2018-10-02T05:54:01.234Z,4098.4
2018-10-02T05:55:01.095Z,4210.7
2018-10-02T05:56:01.062Z,4322.7
2018-10-02T05:57:01.096Z,4424.6
2018-10-02T05:58:01.096Z,4532.8
2018-10-02T05:59:01.288Z,4605.1
2018-10-02T06:00:06.110Z,4612.9
2018-10-02T06:01:01.100Z,4592.6
2018-10-02T06:02:01.101Z,4654.9
2018-10-02T06:03:01.063Z,4740.1
2018-10-02T06:04:01.241Z,4826.7
2018-10-02T06:05:06.107Z,4925.7
2018-10-02T06:06:01.066Z,5084.5
2018-10-02T06:07:01.103Z,5287.1
2018-10-02T06:08:01.098Z,5461.3
2018-10-02T06:09:01.251Z,5619.1
2018-10-02T06:10:01.220Z,5809.7
2018-10-02T06:11:01.102Z,6084.1
2018-10-02T06:12:01.107Z,6477.5
2018-10-02T06:13:01.104Z,6878.8
2018-10-02T06:14:01.243Z,7278.0
2018-10-02T06:15:06.112Z,7828.8
2018-10-02T06:16:01.102Z,8495.1
2018-10-02T06:17:01.127Z,9258.7
2018-10-02T06:18:01.136Z,9992.7
2018-10-02T06:19:01.249Z,10549.7
2018-10-02T06:20:06.103Z,10975.9
2018-10-02T06:21:01.102Z,11292.2
2018-10-02T06:22:01.075Z,11717.9
2018-10-02T06:23:01.104Z,12436.2
2018-10-02T06:25:01.330Z,12881.3
2018-10-02T06:26:01.085Z,13115.8
2018-10-02T06:27:01.085Z,13282.5
2018-10-02T06:28:01.086Z,13329.3
2018-10-02T06:29:01.086Z,13812.9
2018-10-02T06:30:01.195Z,14584.7
2018-10-02T06:31:01.085Z,15302.0
2018-10-02T06:32:01.090Z,16135.0
2018-10-02T06:33:01.059Z,17084.3
2018-10-02T06:34:01.088Z,18067.9
2018-10-02T06:35:01.262Z,19494.1
2018-10-02T06:36:01.056Z,21114.4
2018-10-02T06:37:01.091Z,22945.9
2018-10-02T06:38:01.116Z,24902.0
2018-10-02T06:39:01.134Z,26559.6
2018-10-02T06:40:01.294Z,28314.2
2018-10-02T06:41:01.092Z,30073.4
2018-10-02T06:42:01.093Z,31607.9
2018-10-02T06:43:01.097Z,33053.6
2018-10-02T06:44:01.092Z,33927.9
2018-10-02T06:45:01.333Z,34542.3
2018-10-02T06:46:01.092Z,35385.5
2018-10-02T06:47:01.095Z,36235.9
2018-10-02T06:48:01.094Z,37174.1
2018-10-02T06:49:01.094Z,38175.3
2018-10-02T06:50:01.302Z,38867.2
2018-10-02T06:51:01.231Z,39376.7
2018-10-02T06:52:01.186Z,39365.4
2018-10-02T06:53:01.096Z,39260.4
2018-10-02T06:54:01.099Z,39704.2
2018-10-02T06:55:01.274Z,40059.0
2018-10-02T06:56:01.111Z,40318.7
2018-10-02T06:57:01.180Z,40858.7
2018-10-02T06:58:01.097Z,41254.7
2018-10-02T06:59:01.095Z,41542.5
2018-10-02T07:00:01.307Z,41077.8
2018-10-02T07:01:01.102Z,40134.6
2018-10-02T07:02:01.097Z,38347.7
2018-10-02T07:03:01.168Z,36321.7
2018-10-02T07:04:01.099Z,34189.1
2018-10-02T07:05:01.240Z,32287.4
2018-10-02T07:06:01.064Z,30437.1
2018-10-02T07:07:01.098Z,28677.4
2018-10-02T07:08:01.095Z,26772.9
2018-10-02T07:09:01.127Z,24574.3
2018-10-02T07:10:01.336Z,22760.5
2018-10-02T07:11:01.098Z,20988.1
2018-10-02T07:12:01.103Z,18945.8
2018-10-02T07:13:01.131Z,17261.3
2018-10-02T07:14:01.065Z,15769.1
2018-10-02T07:15:01.289Z,14981.3
2018-10-02T07:16:01.101Z,14528.6
2018-10-02T07:17:01.102Z,14692.5
2018-10-02T07:18:01.110Z,15312.5
2018-10-02T07:19:01.103Z,15810.0
2018-10-02T07:20:01.249Z,16042.3
2018-10-02T07:21:01.375Z,16234.2
2018-10-02T07:22:01.104Z,17248.5
2018-10-02T07:23:01.104Z,18380.2
2018-10-02T07:24:01.105Z,19254.1
2018-10-02T07:25:01.248Z,19802.6
2018-10-02T07:26:01.103Z,20926.0
2018-10-02T07:27:01.154Z,22770.6
2018-10-02T07:28:01.379Z,25375.0
2018-10-02T07:29:01.108Z,28866.7
2018-10-02T07:30:01.296Z,32148.7
2018-10-02T07:32:01.086Z,35427.1
2018-10-02T07:33:01.126Z,38836.3
2018-10-02T07:34:01.148Z,41635.5
2018-10-02T07:35:01.113Z,44525.7
2018-10-02T07:36:01.262Z,47455.0
2018-10-02T07:37:01.204Z,50474.0
2018-10-02T07:38:01.092Z,52958.6
2018-10-02T07:39:01.181Z,55294.6
2018-10-02T07:40:01.114Z,57422.5
2018-10-02T07:41:01.229Z,59038.5
2018-10-02T07:42:01.157Z,59929.4
2018-10-02T07:43:01.205Z,60239.9
2018-10-02T07:44:01.064Z,59449.9
2018-10-02T07:45:06.186Z,57525.1
2018-10-02T07:46:01.235Z,55942.9
2018-10-02T07:47:01.096Z,53512.9
2018-10-02T07:48:01.198Z,51127.3
2018-10-02T07:49:01.096Z,48131.2
2018-10-02T07:50:01.132Z,45554.6
2018-10-02T07:51:01.373Z,42661.0
2018-10-02T07:52:01.092Z,39744.7
2018-10-02T07:53:01.099Z,36939.8
2018-10-02T07:54:01.130Z,34376.5
2018-10-02T07:55:01.140Z,32603.3
2018-10-02T07:56:01.240Z,31722.1
2018-10-02T07:57:01.167Z,31511.9
2018-10-02T07:58:01.096Z,30710.1
2018-10-02T07:59:01.096Z,30290.4
2018-10-02T08:00:06.113Z,30186.3
2018-10-02T08:01:01.325Z,30025.3
2018-10-02T08:02:01.098Z,31640.6
2018-10-02T08:03:01.121Z,33179.4
2018-10-02T08:04:01.184Z,36048.1
2018-10-02T08:05:06.245Z,37984.5
2018-10-02T08:06:01.341Z,40878.1
2018-10-02T08:07:01.103Z,43567.9
2018-10-02T08:08:01.097Z,44149.7
2018-10-02T08:09:01.202Z,44497.6
2018-10-02T08:10:06.098Z,43998.6
2018-10-02T08:11:01.242Z,43236.9
2018-10-02T08:12:01.137Z,42604.6
2018-10-02T08:13:01.098Z,42842.9
2018-10-02T08:14:01.100Z,43468.7
2018-10-02T08:15:01.212Z,44597.6
2018-10-02T08:16:01.307Z,45661.8
2018-10-02T08:17:01.200Z,45387.2
2018-10-02T08:18:01.164Z,45596.4
2018-10-02T08:19:01.104Z,45516.7
2018-10-02T08:20:01.231Z,45875.0
2018-10-02T08:21:01.278Z,44917.7
2018-10-02T08:22:01.103Z,43849.7
2018-10-02T08:23:01.104Z,44420.1
2018-10-02T08:24:01.192Z,45440.1
2018-10-02T08:25:06.108Z,46827.5
2018-10-02T08:26:01.318Z,49148.9
2018-10-02T08:27:01.196Z,50777.7
2018-10-02T08:28:01.107Z,52451.9
2018-10-02T08:29:01.108Z,53899.7
2018-10-02T08:30:06.223Z,54523.9
2018-10-02T08:31:01.245Z,55404.7
2018-10-02T08:32:01.113Z,56616.7
2018-10-02T08:33:01.129Z,56828.9
2018-10-02T08:34:01.106Z,57036.1
2018-10-02T08:35:06.169Z,57317.9
2018-10-02T08:36:01.484Z,56968.5
2018-10-02T08:37:01.119Z,57387.2
2018-10-02T08:38:01.105Z,58156.1
2018-10-02T08:39:01.172Z,57901.8
2018-10-02T08:40:06.112Z,58547.5
2018-10-02T08:41:01.314Z,58170.2
2018-10-02T08:42:01.187Z,58651.1
2018-10-02T08:44:01.091Z,58981.4
2018-10-02T08:45:01.176Z,58981.4
2018-10-02T08:46:01.238Z,59257.1
2018-10-02T08:47:01.192Z,59312.3
2018-10-02T08:49:01.093Z,59737.7
2018-10-02T08:52:01.495Z,61044.4
2018-10-02T08:53:01.091Z,61920.3
2018-10-02T08:54:01.108Z,62803.9
2018-10-02T08:55:06.097Z,64253.6
2018-10-02T08:56:01.091Z,64734.1
2018-10-02T08:57:01.302Z,65420.6
2018-10-02T08:58:01.057Z,65535.0
2018-10-02T09:00:06.171Z,65535.0
2018-10-02T09:15:12.154Z,65535.0
2018-10-02T09:16:01.263Z,65089.2
2018-10-02T09:17:01.111Z,64287.9
2018-10-02T09:18:01.307Z,63524.0
2018-10-02T09:19:01.112Z,63056.7
2018-10-02T09:20:06.095Z,62499.5
2018-10-02T09:21:01.067Z,62104.7
2018-10-02T09:22:01.151Z,61319.1
2018-10-02T09:28:01.278Z,61243.0
2018-10-02T09:29:01.101Z,61018.3
2018-10-02T09:30:01.099Z,60291.9
2018-10-02T09:31:01.131Z,59390.1
2018-10-02T09:32:06.101Z,58866.8
2018-10-02T09:33:01.339Z,58792.1
2018-10-02T09:34:01.347Z,58255.4
2018-10-02T09:35:01.104Z,58667.9
2018-10-02T09:36:01.101Z,59062.7
2018-10-02T09:37:06.260Z,59784.6
2018-10-02T09:39:01.068Z,59555.5
2018-10-02T09:40:01.204Z,58806.7
2018-10-02T09:43:01.302Z,58847.2
2018-10-02T09:44:01.202Z,59071.9
2018-10-02T09:45:01.108Z,59450.5
2018-10-02T09:46:01.195Z,60573.8
2018-10-02T09:47:06.111Z,61273.7
2018-10-02T09:48:01.257Z,60773.5
2018-10-02T09:50:01.155Z,61113.5
2018-10-02T09:51:01.156Z,61243.6
2018-10-02T09:52:01.113Z,60405.5
2018-10-02T09:53:01.093Z,59113.5
2018-10-02T09:54:01.299Z,57697.4
2018-10-02T09:55:01.129Z,57398.9
2018-10-02T09:56:01.098Z,57872.9
2018-10-02T09:57:01.158Z,57696.9
2018-10-02T09:58:01.095Z,57429.5
2018-10-02T09:59:01.240Z,56455.4
2018-10-02T10:00:06.097Z,54979.7
2018-10-02T10:01:01.136Z,53774.7
2018-10-02T10:02:01.099Z,53328.5
2018-10-02T10:03:01.144Z,52926.8
2018-10-02T10:04:01.307Z,53186.3
2018-10-02T10:05:01.133Z,53031.5
2018-10-02T10:06:01.098Z,52908.5
2018-10-02T10:07:01.096Z,53746.6
2018-10-02T10:08:01.102Z,55102.3
2018-10-02T10:09:01.235Z,56518.4
2018-10-02T10:10:01.142Z,56786.3
2018-10-02T10:11:01.101Z,57061.0
2018-10-02T10:12:01.108Z,57237.1
2018-10-02T10:13:01.199Z,57504.4
2018-10-02T10:14:01.243Z,58413.1
2018-10-02T10:15:06.110Z,59726.8
2018-10-02T10:16:01.070Z,60970.7
2018-10-02T10:17:01.266Z,60669.3
2018-10-02T10:18:01.099Z,60992.9
2018-10-02T10:19:01.242Z,61091.3
2018-10-02T10:20:06.097Z,61910.1
2018-10-02T10:21:01.068Z,61989.7
2018-10-02T10:23:01.159Z,61418.9
2018-10-02T10:24:01.274Z,61091.1
2018-10-02T10:25:01.101Z,61350.9
2018-10-02T10:27:01.103Z,60839.7
2018-10-02T10:28:01.110Z,60238.5
2018-10-02T10:29:01.331Z,59068.0
2018-10-02T10:30:01.178Z,58530.7
2018-10-02T10:31:01.070Z,57979.9
2018-10-02T10:32:01.069Z,58369.0
2018-10-02T10:33:01.098Z,58930.3
2018-10-02T10:34:01.278Z,59218.7
2018-10-02T10:35:01.191Z,58148.0
2018-10-02T10:36:01.097Z,57400.3
2018-10-02T10:37:01.107Z,55884.8
2018-10-02T10:38:01.110Z,55038.6
2018-10-02T10:39:01.317Z,53602.3
2018-10-02T10:40:01.188Z,52133.3
2018-10-02T10:41:01.171Z,50860.3
2018-10-02T10:42:01.103Z,49932.6
2018-10-02T10:43:01.110Z,49197.1
2018-10-02T10:44:01.252Z,50468.6
2018-10-02T10:45:01.107Z,51167.9
2018-10-02T10:46:01.102Z,52027.7
2018-10-02T10:47:01.213Z,52610.4
2018-10-02T10:48:01.102Z,52751.9
2018-10-02T10:49:01.291Z,53444.5
2018-10-02T10:50:01.105Z,54515.1
2018-10-02T10:51:01.104Z,55320.7
2018-10-02T10:52:01.106Z,56836.3
2018-10-02T10:54:01.336Z,58253.3
2018-10-02T10:55:01.094Z,60017.3
2018-10-02T10:56:01.090Z,61486.3
2018-10-02T10:57:01.093Z,62759.4
2018-10-02T10:58:01.058Z,64081.8
2018-10-02T10:59:01.410Z,64278.3
2018-10-02T11:00:01.088Z,62768.8
2018-10-02T11:01:01.119Z,61673.4
2018-10-02T11:02:01.056Z,61063.4
2018-10-02T11:09:01.234Z,60502.1
2018-10-02T11:11:01.095Z,59618.0
2018-10-02T11:12:01.193Z,58466.9
2018-10-02T11:13:01.093Z,57157.0
2018-10-02T11:14:01.400Z,56899.4
2018-10-02T11:15:01.098Z,56593.4
2018-10-02T11:16:01.094Z,56202.1
2018-10-02T11:17:01.133Z,55026.5
2018-10-02T11:18:01.097Z,52920.3
2018-10-02T11:19:01.237Z,51223.9
2018-10-02T11:20:01.095Z,49347.3
2018-10-02T11:21:01.093Z,47141.3
2018-10-02T11:24:01.269Z,47213.6
2018-10-02T11:25:01.098Z,46689.1
2018-10-02T11:26:01.063Z,47573.1
2018-10-02T11:27:01.094Z,48724.2
2018-10-02T11:28:06.099Z,50150.6
2018-10-02T11:29:01.241Z,51548.5
2018-10-02T11:30:01.105Z,53363.9
2018-10-02T11:31:01.099Z,54850.7
2018-10-02T11:32:01.097Z,56636.2
2018-10-02T11:33:06.097Z,58742.4
2018-10-02T11:34:01.262Z,60438.8
2018-10-02T11:35:01.098Z,62315.5
2018-10-02T11:36:01.068Z,64521.5
2018-10-02T11:38:06.115Z,64405.4
2018-10-02T11:39:01.249Z,64827.1
2018-10-02T11:40:01.096Z,65029.4
2018-10-02T11:41:01.102Z,64961.3
2018-10-02T11:45:01.194Z,64961.3
2018-10-02T11:53:01.239Z,65077.3
2018-10-02T11:54:01.290Z,65144.7
2018-10-02T11:55:01.115Z,65466.9
2018-10-02T11:56:01.075Z,65535.0
2018-10-02T12:00:01.090Z,65535.0
2018-10-02T12:15:01.181Z,65535.0
2018-10-02T12:30:01.105Z,65535.0
2018-10-02T12:39:01.256Z,64951.0
2018-10-02T12:40:01.105Z,63962.1
2018-10-02T12:41:01.106Z,62492.6
2018-10-02T12:42:01.106Z,61834.8
2018-10-02T12:45:01.109Z,61834.8
2018-10-02T12:54:01.379Z,62418.8
2018-10-02T12:55:01.110Z,63407.7
2018-10-02T12:57:01.095Z,64877.2
2018-10-02T12:58:01.120Z,65535.0
2018-10-02T13:00:01.101Z,65535.0
2018-10-02T13:15:01.197Z,65535.0
2018-10-02T13:29:01.366Z,65396.5
2018-10-02T13:30:01.132Z,65396.5
2018-10-02T13:44:01.373Z,65535.0
2018-10-02T13:45:01.109Z,65535.0
2018-10-02T14:00:01.318Z,65535.0
2018-10-02T14:15:01.290Z,65535.0
2018-10-02T14:28:01.158Z,65448.1
2018-10-02T14:29:01.231Z,64999.3
2018-10-02T14:30:01.062Z,64999.3
2018-10-02T14:35:01.095Z,64915.9
2018-10-02T14:43:01.163Z,65002.7
2018-10-02T14:44:01.248Z,65376.8
2018-10-02T14:45:01.091Z,64816.6
2018-10-02T14:46:01.092Z,64013.4
2018-10-02T14:47:01.100Z,63055.8
2018-10-02T14:48:01.157Z,61967.8
2018-10-02T14:49:01.332Z,60786.7
2018-10-02T14:50:01.097Z,59648.8
2018-10-02T14:51:01.095Z,58418.6
2018-10-02T14:52:01.100Z,57215.1
2018-10-02T14:53:01.126Z,55924.1
2018-10-02T14:54:01.240Z,54598.1
2018-10-02T14:55:01.062Z,53239.1
2018-10-02T14:56:01.104Z,51923.1
2018-10-02T14:57:01.103Z,50751.0
2018-10-02T14:58:06.098Z,49975.7
2018-10-02T14:59:01.305Z,49053.3
2018-10-02T15:00:01.099Z,48410.1
2018-10-02T15:01:01.098Z,47935.9
2018-10-02T15:02:01.097Z,47172.9
2018-10-02T15:03:06.101Z,46593.9
2018-10-02T15:04:01.264Z,46279.4
2018-10-02T15:05:01.097Z,46093.4
2018-10-02T15:06:01.109Z,45906.9
2018-10-02T15:07:01.102Z,45921.9
2018-10-02T15:08:06.274Z,45993.3
2018-10-02T15:09:01.237Z,45559.5
2018-10-02T15:10:01.097Z,45204.1
2018-10-02T15:11:01.099Z,44905.7
2018-10-02T15:12:01.157Z,44157.9
2018-10-02T15:13:01.121Z,42838.9
2018-10-02T15:14:01.311Z,42359.5
2018-10-02T15:15:01.065Z,42717.7
2018-10-02T15:16:06.103Z,43755.9
2018-10-02T15:17:01.100Z,45337.3
2018-10-02T15:18:01.132Z,46111.2
2018-10-02T15:19:01.311Z,46247.6
2018-10-02T15:20:01.103Z,46623.1
2018-10-02T15:21:06.108Z,47143.0
2018-10-02T15:22:01.099Z,47099.9
2018-10-02T15:23:01.106Z,45940.1
2018-10-02T15:24:01.283Z,45127.5
2018-10-02T15:25:01.112Z,44734.7
2018-10-02T15:26:06.108Z,44805.4
2018-10-02T15:28:01.092Z,46571.2
2018-10-02T15:29:01.227Z,48665.4
2018-10-02T15:30:01.086Z,49671.7
2018-10-02T15:31:06.096Z,48904.1
2018-10-02T15:32:01.053Z,47124.3
2018-10-02T15:33:01.087Z,45058.0
2018-10-02T15:34:01.237Z,43501.4
2018-10-02T15:35:01.055Z,42186.7
2018-10-02T15:36:01.111Z,40510.7
2018-10-02T15:37:01.084Z,38823.9
2018-10-02T15:38:01.183Z,37528.7
2018-10-02T15:39:01.245Z,37333.5
2018-10-02T15:40:01.086Z,37397.3
2018-10-02T15:41:06.100Z,37204.7
2018-10-02T15:42:01.091Z,36623.0
2018-10-02T15:43:01.090Z,34906.1
2018-10-02T15:44:01.236Z,33166.6
2018-10-02T15:45:01.121Z,31816.3
2018-10-02T15:46:01.089Z,31442.9
2018-10-02T15:47:01.084Z,31245.8
2018-10-02T15:48:01.091Z,30953.7
2018-10-02T15:49:01.230Z,30713.2
2018-10-02T15:50:01.090Z,30579.4
2018-10-02T15:51:01.257Z,30425.1
2018-10-02T15:52:01.088Z,30316.9
2018-10-02T15:53:01.086Z,30402.6
2018-10-02T15:54:01.236Z,30421.3
2018-10-02T15:55:01.088Z,30433.5
2018-10-02T15:56:01.087Z,30212.3
2018-10-02T15:57:01.090Z,29690.8
2018-10-02T15:58:01.128Z,28863.1
2018-10-02T15:59:01.280Z,27895.4
2018-10-02T16:00:01.097Z,27013.7
2018-10-02T16:01:01.128Z,26226.5
2018-10-02T16:02:01.059Z,25605.3
2018-10-02T16:03:01.092Z,25492.9
2018-10-02T16:04:01.259Z,25489.5
2018-10-02T16:05:01.096Z,25483.5
2018-10-02T16:06:01.122Z,25355.1
2018-10-02T16:07:01.095Z,25034.5
2018-10-02T16:08:01.236Z,24573.1
2018-10-02T16:09:01.237Z,24066.7
2018-10-02T16:10:01.116Z,23371.7
2018-10-02T16:11:01.178Z,22597.3
2018-10-02T16:12:01.095Z,21964.4
2018-10-02T16:13:01.133Z,21333.2
2018-10-02T16:14:01.237Z,20647.3
2018-10-02T16:15:06.096Z,19843.9
2018-10-02T16:16:01.101Z,18970.3
2018-10-02T16:17:01.094Z,18002.5
2018-10-02T16:18:01.204Z,16783.2
2018-10-02T16:19:01.241Z,15643.3
2018-10-02T16:20:06.089Z,14724.9
2018-10-02T16:21:01.264Z,13870.9
2018-10-02T16:22:01.222Z,12845.7
2018-10-02T16:23:01.096Z,11675.7
2018-10-02T16:24:01.242Z,10902.3
2018-10-02T16:25:01.132Z,10430.7
2018-10-02T16:26:01.102Z,9979.7
2018-10-02T16:27:01.104Z,9433.4
2018-10-02T16:28:01.098Z,8905.2
2018-10-02T16:29:01.272Z,8406.6
2018-10-02T16:30:06.103Z,8023.9
2018-10-02T16:31:01.068Z,7786.4
2018-10-02T16:33:01.082Z,7661.3
2018-10-02T16:34:01.316Z,7491.0
2018-10-02T16:35:01.109Z,7286.6
2018-10-02T16:36:01.088Z,6948.6
2018-10-02T16:37:01.049Z,6713.4
2018-10-02T16:38:01.082Z,6621.3
2018-10-02T16:39:01.201Z,6531.7
2018-10-02T16:40:01.115Z,6306.3
2018-10-02T16:41:01.186Z,6006.4
2018-10-02T16:42:01.087Z,5795.0
2018-10-02T16:43:01.051Z,5612.5
2018-10-02T16:44:01.229Z,5402.3
2018-10-02T16:45:01.093Z,5208.3
2018-10-02T16:46:01.108Z,5029.1
2018-10-02T16:47:01.140Z,4823.6
2018-10-02T16:48:01.056Z,4626.5
2018-10-02T16:49:01.245Z,4437.9
2018-10-02T16:50:01.095Z,4235.3
2018-10-02T16:51:02.804Z,4052.0
2018-10-02T16:52:01.092Z,3877.5
2018-10-02T16:53:01.089Z,3727.0
2018-10-02T16:54:01.230Z,3598.7
2018-10-02T16:55:01.092Z,3378.1
2018-10-02T16:56:01.093Z,3074.5
2018-10-02T16:57:01.134Z,2784.3
2018-10-02T16:58:01.089Z,2549.3
2018-10-02T16:59:01.238Z,2363.7
2018-10-02T17:00:01.088Z,2181.3
2018-10-02T17:01:01.094Z,1966.1
2018-10-02T17:02:01.093Z,1753.9
2018-10-02T17:03:01.092Z,1568.5
2018-10-02T17:04:01.305Z,1448.5
2018-10-02T17:05:01.088Z,1378.7
2018-10-02T17:06:01.090Z,1318.3
2018-10-02T17:07:01.087Z,1253.7
2018-10-02T17:08:01.088Z,1207.8
2018-10-02T17:09:01.260Z,1166.1
2018-10-02T17:10:01.089Z,1109.8
2018-10-02T17:11:01.087Z,1033.9
2018-10-02T17:12:01.094Z,934.3
2018-10-02T17:13:06.093Z,824.4
2018-10-02T17:14:01.237Z,719.6
2018-10-02T17:15:01.091Z,624.6
2018-10-02T17:16:01.097Z,542.3
2018-10-02T17:17:01.092Z,478.3
2018-10-02T17:18:01.125Z,424.5
2018-10-02T17:19:01.235Z,366.3
2018-10-02T17:20:01.057Z,309.7
2018-10-02T17:21:01.063Z,256.9
2018-10-02T17:22:01.103Z,208.7
2018-10-02T17:23:01.121Z,167.7
2018-10-02T17:24:01.304Z,132.3
2018-10-02T17:25:01.097Z,103.1
2018-10-02T17:26:02.171Z,78.4
2018-10-02T17:27:01.095Z,58.5
2018-10-02T17:28:01.122Z,44.3
2018-10-02T17:29:01.337Z,35.2
2018-10-02T17:30:01.101Z,30.1
2018-10-02T17:31:01.101Z,27.0
2018-10-02T17:32:01.100Z,24.9
2018-10-02T17:33:06.106Z,23.1
2018-10-02T17:34:01.231Z,21.1
2018-10-02T17:35:01.098Z,19.3
2018-10-02T17:36:01.102Z,17.3
2018-10-02T17:37:01.099Z,15.5
2018-10-02T17:38:01.135Z,13.9
2018-10-02T17:40:01.427Z,12.3
2018-10-02T17:41:01.090Z,10.5
2018-10-02T17:42:01.088Z,8.9
2018-10-02T17:43:02.067Z,7.5
2018-10-02T17:44:01.084Z,6.3
2018-10-02T17:45:01.290Z,5.3
2018-10-02T17:46:01.084Z,4.5
2018-10-02T17:47:01.049Z,3.7
2018-10-02T17:48:01.081Z,3.1
2018-10-02T17:49:01.181Z,2.5
2018-10-02T17:50:01.230Z,2.1
2018-10-02T17:51:01.048Z,1.6
2018-10-02T17:52:01.084Z,1.3
2018-10-02T17:53:01.087Z,1.0
2018-10-02T17:54:01.107Z,0.9
2018-10-02T17:55:01.287Z,0.8
2018-10-02T17:56:01.051Z,0.7
2018-10-02T17:57:01.055Z,0.6
2018-10-02T17:58:01.080Z,0.5
2018-10-02T17:59:01.119Z,0.4
2018-10-02T18:00:02.601Z,0.3
2018-10-02T18:02:01.085Z,0.2
2018-10-02T18:03:01.085Z,0.1
